Meteo Giornale » Osservazioni meteo Ungheria » Budapest-Ferihegy

ore: 20:00 - Osservazioni Meteo Budapest-Ferihegy
Lat. 47° 26' N Lon. 19° 16' E Alt. 151 metri s.l.m.

foschia Europe/Budapest

8 °C

Foschia

Temp. 24 Ore

5 °C

17 °C

Nord

3.7 Km/h

Dew point 7 °C

Umidità 93 %

Visibilità  5 Km

Il sole sorge alle ore 07:10

Il sole tramonta alle ore 17:43

Data e Ora Cielo e Fenomeni T °C DP °C Um. % Pres. hPa Vis. km Vento km/h
Oggi h: 20:00 foschia Foschia 8 7 93 1020 5 N 3.7
Oggi h: 19:00 sereno Sereno 10 9 93 1020 10 N 3.7
Oggi h: 18:30 sereno Sereno 11 9 87 1020 10 N 3.7
Oggi h: 18:00 sereno Sereno 12 9 81 1020 10 N 5.5
Oggi h: 17:00 sereno Sereno 16 9 63 1020 10 N 3.7
Oggi h: 16:30 poco_nuvoloso Poco Nuvoloso 17 9 59 1020 10 S/SO 7.4
Oggi h: 16:00 poco_nuvoloso Poco Nuvoloso 17 10 63 1020 10 S/SO 7.4
Oggi h: 15:30 molto_nuvoloso Molto Nuvoloso 17 9 59 1020 10 SO 13
Oggi h: 15:00 molto_nuvoloso Molto Nuvoloso 17 9 59 1020 10 S/SO 11.1
Oggi h: 14:30 nuvoloso Nuvoloso 16 9 63 1020 10 S/SO 14.8
Oggi h: 14:00 poco_nuvoloso Poco Nuvoloso 17 9 59 1020 10 N 11.1
Oggi h: 13:30 poco_nuvoloso Poco Nuvoloso 16 9 63 1020 10 S 13
Oggi h: 13:00 poco_nuvoloso Poco Nuvoloso 16 8 58 1020 10 S 11.1
Oggi h: 12:30 poco_nuvoloso Poco Nuvoloso 15 9 67 1021 10 S/SE 11.1
Oggi h: 12:00 poco_nuvoloso Poco Nuvoloso 14 8 67 1021 10 SE 11.1
Oggi h: 11:00 poco_nuvoloso Poco Nuvoloso 14 8 67 1021 10 E 7.4
Oggi h: 10:30 sereno Sereno 13 8 71 1021 10 E/SE 9.3
Oggi h: 10:00 sereno Sereno 11 7 76 1021 10 E/SE 13
Oggi h: 09:30 sereno Sereno 10 7 81 1021 10 E 13
Oggi h: 09:00 sereno Sereno 9 6 81 1021 10 E 9.3
Oggi h: 08:30 sereno Sereno 8 6 87 1020 10 E 13
Oggi h: 08:00 sereno Sereno 5 5 100 1020 10 N 0
Oggi h: 07:30 sereno Sereno 5 5 100 1020 10 N 3.7
Oggi h: 07:00 sereno Sereno 5 4 93 1020 10 N 3.7
Oggi h: 06:00 sereno Sereno 6 5 93 1020 10 E 7.4
Oggi h: 05:30 sereno Sereno 8 6 87 1020 10 E/SE 7.4
Oggi h: 05:00 sereno Sereno 8 5 81 1020 10 E 11.1
Oggi h: 04:30 sereno Sereno 7 5 87 1019 10 E 11.1
Oggi h: 04:00 sereno Sereno 8 6 87 1019 10 E 13
Oggi h: 03:30 sereno Sereno 7 5 87 1019 10 E 9.3
Oggi h: 03:00 sereno Sereno 7 5 87 1019 10 E 9.3
Oggi h: 02:30 sereno Sereno 7 5 87 1020 10 E 7.4
Oggi h: 01:30 sereno Sereno 8 6 87 1020 10 E 9.3
Oggi h: 01:00 sereno Sereno 9 6 81 1020 10 E 9.3
Oggi h: 00:30 sereno Sereno 8 6 87 1019 10 E 9.3
Oggi h: 00:00 sereno Sereno 8 6 87 1019 10 E 9.3
Ieri h: 23:30 sereno Sereno 9 7 87 1019 10 E 9.3
Ieri h: 23:00 sereno Sereno 10 7 81 1019 10 E 7.4
Ieri h: 22:30 sereno Sereno 10 7 81 1019 10 E/SE 9.3
Ieri h: 22:00 sereno Sereno 9 7 87 1019 10 E/SE 9.3
Ieri h: 21:30 sereno Sereno 10 7 81 1019 10 E 13
Ieri h: 21:00 sereno Sereno 10 7 81 1019 10 E/SE 9.3